createdAt,value
2023-10-02T00:00:43.668Z,99068.30
2023-10-02T00:03:33.828Z,99072.45
2023-10-02T00:06:03.328Z,99065.52
2023-10-02T00:08:43.079Z,99056.37
2023-10-02T00:11:32.601Z,99052.11
2023-10-02T00:14:16.589Z,99041.86
2023-10-02T00:16:59.427Z,99036.52
2023-10-02T00:19:30.256Z,99039.54
2023-10-02T00:22:04.474Z,99038.21
2023-10-02T00:24:36.515Z,99035.20
2023-10-02T00:27:06.481Z,99041.86
2023-10-02T00:29:35.880Z,99043.44
2023-10-02T00:32:11.717Z,99045.33
2023-10-02T00:34:42.075Z,99047.29
2023-10-02T00:37:13.563Z,99050.90
2023-10-02T00:39:48.012Z,99055.61
2023-10-02T00:42:17.191Z,99051.03
2023-10-02T00:44:54.913Z,99052.16
2023-10-02T00:47:42.961Z,99052.83
2023-10-02T00:50:17.752Z,99049.31
2023-10-02T00:52:57.214Z,99050.06
2023-10-02T00:55:27.558Z,99047.45
2023-10-02T00:57:57.501Z,99052.27
2023-10-02T01:00:36.574Z,99056.20
2023-10-02T01:03:10.315Z,99059.61
2023-10-02T01:05:48.276Z,99060.36
2023-10-02T01:08:43.514Z,99062.58
2023-10-02T01:11:15.473Z,99060.72
2023-10-02T01:13:45.308Z,99058.21
2023-10-02T01:16:17.695Z,99057.01
2023-10-02T01:18:48.802Z,99055.17
2023-10-02T01:21:24.848Z,99052.20
2023-10-02T01:24:08.730Z,99051.45
2023-10-02T01:26:41.109Z,99051.73
2023-10-02T01:29:11.716Z,99053.69
2023-10-02T01:31:44.886Z,99055.84
2023-10-02T01:34:33.832Z,99055.00
2023-10-02T01:37:24.952Z,99054.25
2023-10-02T01:40:13.507Z,99053.91
2023-10-02T01:42:44.521Z,99055.91
2023-10-02T01:45:13.498Z,99055.23
2023-10-02T01:47:42.933Z,99052.92
2023-10-02T01:50:11.732Z,99045.58
2023-10-02T01:52:51.270Z,99043.94
2023-10-02T01:55:29.736Z,99048.30
2023-10-02T01:58:17.111Z,99045.20
2023-10-02T02:00:46.386Z,99043.27
2023-10-02T02:03:18.526Z,99046.62
2023-10-02T02:05:50.018Z,99048.41
2023-10-02T02:08:24.931Z,99050.67
2023-10-02T02:11:07.756Z,99054.36
2023-10-02T02:13:44.673Z,99056.79
2023-10-02T02:16:22.486Z,99057.42
2023-10-02T02:18:54.424Z,99060.55
2023-10-02T02:21:25.267Z,99059.00
2023-10-02T02:24:04.305Z,99058.65
2023-10-02T02:26:33.858Z,99059.02
2023-10-02T02:29:03.560Z,99062.98
2023-10-02T02:31:33.356Z,99057.79
2023-10-02T02:34:04.669Z,99061.02
2023-10-02T02:36:36.144Z,99058.33
2023-10-02T02:39:17.985Z,99054.13
2023-10-02T02:41:49.054Z,99060.41
2023-10-02T02:44:36.664Z,99061.10
2023-10-02T02:47:08.774Z,99062.98
2023-10-02T02:49:52.288Z,99069.35
2023-10-02T02:52:25.462Z,99072.71
2023-10-02T02:54:59.643Z,99073.23
2023-10-02T02:57:31.973Z,99074.20
2023-10-02T03:00:17.287Z,99073.34
2023-10-02T03:02:48.394Z,99070.20
2023-10-02T03:05:22.405Z,99066.50
2023-10-02T03:07:54.804Z,99064.90
2023-10-02T03:10:24.756Z,99062.30
2023-10-02T03:12:54.321Z,99063.87
2023-10-02T03:15:46.386Z,99062.73
2023-10-02T03:18:30.851Z,99064.83
2023-10-02T03:21:00.735Z,99067.09
2023-10-02T03:23:31.183Z,99068.73
2023-10-02T03:25:59.793Z,99070.80
2023-10-02T03:28:28.438Z,99068.05
2023-10-02T03:30:58.056Z,99070.24
2023-10-02T03:33:31.764Z,99065.59
2023-10-02T03:36:08.936Z,99064.74
2023-10-02T03:38:42.286Z,99067.23
2023-10-02T03:41:14.059Z,99068.09
2023-10-02T03:43:47.213Z,99064.76
2023-10-02T03:46:23.442Z,99065.28
2023-10-02T03:48:52.767Z,99070.02
2023-10-02T03:51:36.337Z,99075.00
2023-10-02T03:54:18.313Z,99071.91
2023-10-02T03:56:49.136Z,99070.00
2023-10-02T03:59:18.158Z,99076.98
2023-10-02T04:01:47.736Z,99075.12
2023-10-02T04:04:22.003Z,99075.67
2023-10-02T04:06:53.901Z,99069.47
2023-10-02T04:09:24.380Z,99069.45
2023-10-02T04:11:52.488Z,99067.30
2023-10-02T04:14:32.010Z,99067.91
2023-10-02T04:17:13.726Z,99067.25
2023-10-02T04:19:49.017Z,99064.06
2023-10-02T04:22:22.678Z,99064.92
2023-10-02T04:24:54.072Z,99067.08
2023-10-02T04:27:28.683Z,99070.30
2023-10-02T04:30:21.886Z,99069.30
2023-10-02T04:32:52.076Z,99069.30
2023-10-02T04:35:35.747Z,99074.45
2023-10-02T04:38:08.245Z,99075.04
2023-10-02T04:40:50.201Z,99075.66
2023-10-02T04:43:24.036Z,99076.94
2023-10-02T04:45:54.836Z,99080.73
2023-10-02T04:48:27.767Z,99083.58
2023-10-02T04:50:56.951Z,99088.34
2023-10-02T04:53:25.753Z,99084.66
2023-10-02T04:56:09.494Z,99084.64
2023-10-02T04:58:40.528Z,99083.61
2023-10-02T05:01:36.292Z,99082.17
2023-10-02T05:04:07.310Z,99088.30
2023-10-02T05:06:52.921Z,99090.00
2023-10-02T05:09:33.025Z,99091.46
2023-10-02T05:12:04.893Z,99085.31
2023-10-02T05:14:48.104Z,99084.34
2023-10-02T05:17:39.171Z,99086.57
2023-10-02T05:20:15.599Z,99080.32
2023-10-02T05:22:45.893Z,99079.95
2023-10-02T05:25:18.702Z,99081.93
2023-10-02T05:27:48.631Z,99084.15
2023-10-02T05:30:18.605Z,99083.49
2023-10-02T05:32:47.788Z,99081.60
2023-10-02T05:35:24.252Z,99077.95
2023-10-02T05:37:55.230Z,99083.00
2023-10-02T05:40:38.994Z,99083.27
2023-10-02T05:43:11.196Z,99082.75
2023-10-02T05:45:47.644Z,99086.13
2023-10-02T05:48:28.220Z,99089.91
2023-10-02T05:50:58.466Z,99099.73
2023-10-02T05:53:29.683Z,99101.70
2023-10-02T05:56:05.755Z,99098.09
2023-10-02T05:58:36.429Z,99099.83
2023-10-02T06:01:07.380Z,99104.94
2023-10-02T06:03:37.731Z,99108.89
2023-10-02T06:06:18.788Z,99109.56
2023-10-02T06:08:52.522Z,99115.27
2023-10-02T06:11:27.606Z,99112.89
2023-10-02T06:13:58.584Z,99119.29
2023-10-02T06:16:30.337Z,99122.90
2023-10-02T06:19:02.867Z,99123.36
2023-10-02T06:21:46.329Z,99124.80
2023-10-02T06:24:17.768Z,99121.30
2023-10-02T06:26:57.898Z,99123.96
2023-10-02T06:29:29.221Z,99126.14
2023-10-02T06:32:05.655Z,99123.44
2023-10-02T06:34:38.589Z,99122.06
2023-10-02T06:37:12.804Z,99117.59
2023-10-02T06:39:43.526Z,99122.41
2023-10-02T06:42:16.440Z,99120.26
2023-10-02T06:44:54.796Z,99122.91
2023-10-02T06:47:28.770Z,99124.27
2023-10-02T06:50:03.666Z,99126.54
2023-10-02T06:52:34.028Z,99130.51
2023-10-02T06:55:04.071Z,99133.38
2023-10-02T06:57:37.083Z,99136.01
2023-10-02T07:00:10.519Z,99134.52
2023-10-02T07:02:39.251Z,99133.09
2023-10-02T07:05:10.876Z,99128.45
2023-10-02T07:07:59.644Z,99122.80
2023-10-02T07:10:30.238Z,99129.14
2023-10-02T07:13:18.822Z,99128.52
2023-10-02T07:15:48.201Z,99124.20
2023-10-02T07:18:16.876Z,99121.20
2023-10-02T07:20:52.259Z,99122.70
2023-10-02T07:23:21.007Z,99122.39
2023-10-02T07:25:51.400Z,99129.83
2023-10-02T07:28:21.446Z,99132.14
2023-10-02T07:30:51.073Z,99131.27
2023-10-02T07:33:21.116Z,99130.27
2023-10-02T07:35:54.573Z,99124.41
2023-10-02T07:38:30.664Z,99114.88
2023-10-02T07:41:06.837Z,99119.22
2023-10-02T07:43:36.026Z,99118.16
2023-10-02T07:46:14.992Z,99118.65
2023-10-02T07:48:56.477Z,99116.37
2023-10-02T07:51:31.757Z,99114.11
2023-10-02T07:54:01.584Z,99113.34
2023-10-02T07:56:30.332Z,99107.65
2023-10-02T07:59:01.919Z,99115.61
2023-10-02T08:01:34.358Z,99114.65
2023-10-02T08:04:03.803Z,99117.09
2023-10-02T08:06:37.405Z,99116.48
2023-10-02T08:09:21.690Z,99113.47
2023-10-02T08:11:51.844Z,99113.35
2023-10-02T08:14:35.673Z,99115.72
2023-10-02T08:17:09.141Z,99112.23
2023-10-02T08:19:37.960Z,99113.85
2023-10-02T08:22:06.665Z,99111.80
2023-10-02T08:24:38.371Z,99111.93
2023-10-02T08:27:07.086Z,99108.14
2023-10-02T08:29:35.851Z,99111.98
2023-10-02T08:32:05.374Z,99116.04
2023-10-02T08:34:34.178Z,99103.50
2023-10-02T08:37:06.178Z,99095.90
2023-10-02T08:39:34.814Z,99103.98
2023-10-02T08:42:08.749Z,99097.40
2023-10-02T08:44:38.937Z,99081.27
2023-10-02T08:47:08.198Z,99085.33
2023-10-02T08:49:37.202Z,99095.90
2023-10-02T08:52:10.457Z,99098.59
2023-10-02T08:54:41.617Z,99104.63
2023-10-02T08:57:10.691Z,99100.61
2023-10-02T08:59:40.145Z,99097.34
2023-10-02T09:02:14.530Z,99095.93
2023-10-02T09:05:07.185Z,99097.88
2023-10-02T09:07:46.387Z,99086.22
2023-10-02T09:10:25.321Z,99088.77
2023-10-02T09:13:12.511Z,99088.54
2023-10-02T09:15:47.561Z,99080.30
2023-10-02T09:18:34.599Z,99078.04
2023-10-02T09:21:14.023Z,99065.77
2023-10-02T09:23:52.617Z,99067.20
2023-10-02T09:26:24.262Z,99061.37
2023-10-02T09:29:00.035Z,99061.02
2023-10-02T09:31:31.751Z,99042.41
2023-10-02T09:34:16.400Z,99042.10
2023-10-02T09:37:47.856Z,99035.01
2023-10-02T09:40:14.858Z,99019.16
2023-10-02T09:42:48.887Z,99013.56
2023-10-02T09:45:31.382Z,99006.39
2023-10-02T09:48:06.828Z,99004.80
2023-10-02T09:50:47.194Z,99001.46
2023-10-02T09:53:18.166Z,98999.99
2023-10-02T09:56:08.064Z,99005.54
2023-10-02T09:58:48.488Z,99004.12
2023-10-02T10:01:36.147Z,98996.67
2023-10-02T10:04:28.505Z,98994.24
2023-10-02T10:07:10.288Z,98986.55
2023-10-02T10:09:51.376Z,99001.77
2023-10-02T10:12:51.550Z,99004.63
2023-10-02T10:15:27.019Z,99006.32
2023-10-02T10:17:59.508Z,99011.46
2023-10-02T10:20:30.639Z,99012.27
2023-10-02T10:23:19.575Z,99011.61
2023-10-02T10:25:54.043Z,99010.72
2023-10-02T10:28:30.266Z,99015.10
2023-10-02T10:31:02.580Z,99018.40
2023-10-02T10:33:42.418Z,99014.08
2023-10-02T10:36:35.711Z,99016.00
2023-10-02T10:39:20.174Z,99027.08
2023-10-02T10:41:58.088Z,99024.88
2023-10-02T10:44:34.337Z,99030.02
2023-10-02T10:47:04.368Z,99035.94
2023-10-02T10:50:13.964Z,99038.31
2023-10-02T10:52:45.053Z,99037.59
2023-10-02T10:55:33.805Z,99039.79
2023-10-02T10:58:07.102Z,99036.63
2023-10-02T11:00:42.586Z,99036.18
2023-10-02T11:03:14.674Z,99033.55
2023-10-02T11:05:44.097Z,99037.06
2023-10-02T11:08:26.668Z,99031.34
2023-10-02T11:11:19.142Z,99036.11
2023-10-02T11:13:52.331Z,99041.27
2023-10-02T11:16:39.222Z,99035.85
2023-10-02T11:19:15.097Z,99033.86
2023-10-02T11:22:15.583Z,99035.95
2023-10-02T11:24:46.053Z,99031.50
2023-10-02T11:27:16.819Z,99031.09
2023-10-02T11:30:01.493Z,99026.66
2023-10-02T11:32:48.884Z,99032.54
2023-10-02T11:35:18.586Z,99032.71
2023-10-02T11:37:48.223Z,99033.36
2023-10-02T11:40:16.984Z,99038.84
2023-10-02T11:42:45.490Z,99033.02
2023-10-02T11:45:15.742Z,99034.91
2023-10-02T11:47:46.100Z,99032.69
2023-10-02T11:50:17.639Z,99029.77
2023-10-02T11:52:48.219Z,99028.40
2023-10-02T11:55:18.650Z,99027.04
2023-10-02T11:57:51.908Z,99024.45
2023-10-02T12:00:22.394Z,99026.60
2023-10-02T12:02:51.737Z,99027.16
2023-10-02T12:05:21.164Z,99023.90
2023-10-02T12:07:49.821Z,99022.70
2023-10-02T12:10:18.705Z,99020.02
2023-10-02T12:12:47.388Z,99019.40
2023-10-02T12:15:17.901Z,99021.27
2023-10-02T12:17:48.385Z,99017.41
2023-10-02T12:20:23.200Z,99016.88
2023-10-02T12:22:52.280Z,99017.76
2023-10-02T12:25:20.992Z,99011.31
2023-10-02T12:27:50.908Z,99014.55
2023-10-02T12:30:19.789Z,99011.79
2023-10-02T12:32:50.559Z,99007.57
2023-10-02T12:35:19.362Z,99005.52
2023-10-02T12:37:50.963Z,99003.84
2023-10-02T12:40:21.611Z,99007.98
2023-10-02T12:42:51.040Z,99008.93
2023-10-02T12:45:19.691Z,99001.92
2023-10-02T12:47:48.408Z,99007.02
2023-10-02T12:50:17.374Z,99009.27
2023-10-02T12:52:46.001Z,99000.60
2023-10-02T12:55:15.916Z,98997.13
2023-10-02T12:57:44.843Z,98993.23
2023-10-02T13:00:18.881Z,98991.25
2023-10-02T13:02:48.739Z,98987.50
2023-10-02T13:05:20.353Z,98990.36
2023-10-02T13:07:51.304Z,98990.51
2023-10-02T13:10:20.032Z,98994.59
2023-10-02T13:12:49.773Z,98989.50
2023-10-02T13:15:19.613Z,98989.31
2023-10-02T13:17:49.096Z,98990.09
2023-10-02T13:20:17.736Z,98985.90
2023-10-02T13:22:46.398Z,98985.76
2023-10-02T13:25:14.958Z,98981.19
2023-10-02T13:27:43.747Z,98976.70
2023-10-02T13:30:13.406Z,98977.48
2023-10-02T13:32:42.449Z,98974.39
2023-10-02T13:35:11.649Z,98971.95
2023-10-02T13:37:40.676Z,98973.34
2023-10-02T13:40:19.284Z,98966.90
2023-10-02T13:42:49.888Z,98964.54
2023-10-02T13:45:19.573Z,98961.12
2023-10-02T13:47:48.934Z,98959.43
2023-10-02T13:50:18.089Z,98959.69
2023-10-02T13:52:46.896Z,98958.65
2023-10-02T13:55:22.983Z,98956.40
2023-10-02T13:57:51.881Z,98957.84
2023-10-02T14:00:21.262Z,98958.96
2023-10-02T14:02:51.705Z,98965.10
2023-10-02T14:05:20.844Z,98959.59
2023-10-02T14:07:50.383Z,98955.51
2023-10-02T14:10:19.298Z,98955.61
2023-10-02T14:12:48.009Z,98955.70
2023-10-02T14:15:17.375Z,98949.73
2023-10-02T14:17:46.270Z,98954.88
2023-10-02T14:20:15.870Z,98950.80
2023-10-02T14:22:47.401Z,98946.52
2023-10-02T14:25:17.038Z,98944.62
2023-10-02T14:27:46.185Z,98948.16
2023-10-02T14:30:14.963Z,98948.33
2023-10-02T14:32:47.429Z,98943.10
2023-10-02T14:35:17.784Z,98942.65
2023-10-02T14:37:48.737Z,98943.09
2023-10-02T14:40:20.549Z,98940.36
2023-10-02T14:42:49.768Z,98939.53
2023-10-02T14:45:18.404Z,98938.52
2023-10-02T14:47:47.152Z,98936.50
2023-10-02T14:50:16.902Z,98940.00
2023-10-02T14:52:45.432Z,98943.74
2023-10-02T14:55:18.338Z,98945.94
2023-10-02T14:57:48.676Z,98942.73
2023-10-02T15:00:21.764Z,98943.83
2023-10-02T15:02:52.385Z,98947.60
2023-10-02T15:05:23.228Z,98947.69
2023-10-02T15:07:53.499Z,98947.13
2023-10-02T15:10:23.799Z,98944.02
2023-10-02T15:12:53.434Z,98943.39
2023-10-02T15:15:24.801Z,98943.89
2023-10-02T15:17:53.984Z,98942.72
2023-10-02T15:20:26.397Z,98946.78
2023-10-02T15:22:57.867Z,98944.78
2023-10-02T15:25:30.761Z,98946.15
2023-10-02T15:28:01.185Z,98949.46
2023-10-02T15:30:30.104Z,98952.75
2023-10-02T15:32:59.242Z,98952.83
2023-10-02T15:35:27.906Z,98949.60
2023-10-02T15:38:01.856Z,98949.75
2023-10-02T15:40:34.032Z,98949.52
2023-10-02T15:43:03.894Z,98951.34
2023-10-02T15:45:32.712Z,98953.27
2023-10-02T15:48:01.527Z,98951.32
2023-10-02T15:50:31.385Z,98952.70
2023-10-02T15:53:00.084Z,98953.73
2023-10-02T15:55:29.620Z,98950.40
2023-10-02T15:57:58.194Z,98949.95
2023-10-02T16:00:27.255Z,98950.30
2023-10-02T16:02:58.021Z,98948.14
2023-10-02T16:05:29.318Z,98950.80
2023-10-02T16:08:00.412Z,98948.64
2023-10-02T16:10:29.677Z,98949.02
2023-10-02T16:12:58.247Z,98949.27
2023-10-02T16:15:28.902Z,98951.04
2023-10-02T16:17:59.312Z,98950.89
2023-10-02T16:20:29.937Z,98948.80
2023-10-02T16:22:58.050Z,98949.06
2023-10-02T16:25:28.772Z,98955.39
2023-10-02T16:27:58.207Z,98954.34
2023-10-02T16:30:27.549Z,98954.95
2023-10-02T16:32:58.104Z,98952.41
2023-10-02T16:35:29.835Z,98957.39
2023-10-02T16:38:00.266Z,98954.80
2023-10-02T16:40:29.687Z,98955.14
2023-10-02T16:43:00.523Z,98948.91
2023-10-02T16:45:29.470Z,98953.17
2023-10-02T16:48:01.958Z,98951.40
2023-10-02T16:50:31.019Z,98949.61
2023-10-02T16:52:59.998Z,98946.70
2023-10-02T16:55:30.166Z,98946.50
2023-10-02T16:57:59.536Z,98944.19
2023-10-02T17:00:28.760Z,98940.09
2023-10-02T17:02:58.333Z,98937.14
2023-10-02T17:05:27.604Z,98941.33
2023-10-02T17:07:56.879Z,98939.77
2023-10-02T17:10:25.673Z,98942.44
2023-10-02T17:12:57.836Z,98943.45
2023-10-02T17:15:28.960Z,98943.45
2023-10-02T17:17:58.360Z,98942.16
2023-10-02T17:20:27.606Z,98939.94
2023-10-02T17:22:59.090Z,98940.98
2023-10-02T17:25:28.971Z,98942.09
2023-10-02T17:28:00.343Z,98939.05
2023-10-02T17:30:31.774Z,98938.52
2023-10-02T17:33:02.487Z,98933.68
2023-10-02T17:35:31.673Z,98933.88
2023-10-02T17:38:01.372Z,98933.93
2023-10-02T17:40:31.250Z,98932.35
2023-10-02T17:43:00.065Z,98933.88
2023-10-02T17:45:28.592Z,98933.77
2023-10-02T17:47:57.888Z,98937.48
2023-10-02T17:50:26.671Z,98939.55
2023-10-02T17:52:55.557Z,98942.61
2023-10-02T17:55:24.407Z,98942.52
2023-10-02T17:57:53.084Z,98940.69
2023-10-02T18:00:22.664Z,98939.99
2023-10-02T18:02:51.574Z,98937.97
2023-10-02T18:05:20.746Z,98938.03
2023-10-02T18:07:49.863Z,98932.47
2023-10-02T18:10:19.604Z,98934.89
2023-10-02T18:12:48.387Z,98932.40
2023-10-02T18:15:18.971Z,98930.48
2023-10-02T18:17:48.240Z,98924.98
2023-10-02T18:20:17.717Z,98926.58
2023-10-02T18:22:46.740Z,98927.16
2023-10-02T18:25:19.407Z,98924.75
2023-10-02T18:27:49.685Z,98923.80
2023-10-02T18:30:18.531Z,98920.38
2023-10-02T18:32:47.712Z,98920.16
2023-10-02T18:35:19.233Z,98917.23
2023-10-02T18:37:47.770Z,98921.81
2023-10-02T18:40:16.867Z,98919.45
2023-10-02T18:42:45.396Z,98919.23
2023-10-02T18:45:14.417Z,98917.89
2023-10-02T18:47:44.702Z,98919.00
2023-10-02T18:50:13.154Z,98922.20
2023-10-02T18:52:41.947Z,98920.13
2023-10-02T18:55:11.590Z,98918.20
2023-10-02T18:57:40.165Z,98914.83
2023-10-02T19:00:11.764Z,98915.67
2023-10-02T19:02:40.557Z,98915.48
2023-10-02T19:05:10.156Z,98916.93
2023-10-02T19:07:39.389Z,98920.60
2023-10-02T19:10:10.629Z,98917.23
2023-10-02T19:12:40.074Z,98912.77
2023-10-02T19:15:10.681Z,98908.90
2023-10-02T19:17:39.762Z,98911.55
2023-10-02T19:20:12.654Z,98911.21
2023-10-02T19:22:42.240Z,98906.48
2023-10-02T19:25:12.568Z,98905.55
2023-10-02T19:27:42.590Z,98906.61
2023-10-02T19:30:13.553Z,98908.16
2023-10-02T19:32:42.996Z,98905.88
2023-10-02T19:35:12.863Z,98907.02
2023-10-02T19:37:41.484Z,98908.73
2023-10-02T19:40:12.331Z,98910.42
2023-10-02T19:42:40.950Z,98903.77
2023-10-02T19:45:12.304Z,98904.37
2023-10-02T19:47:43.926Z,98904.55
2023-10-02T19:50:15.140Z,98905.83
2023-10-02T19:52:43.830Z,98904.27
2023-10-02T19:55:12.377Z,98910.19
2023-10-02T19:57:41.185Z,98909.89
2023-10-02T20:00:12.698Z,98906.25
2023-10-02T20:02:45.373Z,98901.69
2023-10-02T20:05:14.266Z,98903.09
2023-10-02T20:07:43.416Z,98902.14
2023-10-02T20:10:12.578Z,98895.30
2023-10-02T20:12:42.269Z,98895.59
2023-10-02T20:15:12.434Z,98893.77
2023-10-02T20:17:41.490Z,98892.61
2023-10-02T20:20:11.378Z,98894.06
2023-10-02T20:22:40.589Z,98893.25
2023-10-02T20:25:12.638Z,98892.27
2023-10-02T20:27:41.545Z,98892.66
2023-10-02T20:30:15.238Z,98893.48
2023-10-02T20:32:44.206Z,98889.45
2023-10-02T20:35:12.897Z,98887.12
2023-10-02T20:37:42.115Z,98884.23
2023-10-02T20:40:15.793Z,98879.42
2023-10-02T20:42:44.694Z,98880.45
2023-10-02T20:45:13.774Z,98881.05
2023-10-02T20:47:42.447Z,98882.23
2023-10-02T20:50:11.307Z,98880.77
2023-10-02T20:52:39.845Z,98883.55
2023-10-02T20:55:10.331Z,98880.15
2023-10-02T20:57:39.609Z,98879.53
2023-10-02T21:00:14.686Z,98878.22
2023-10-02T21:02:45.154Z,98882.46
2023-10-02T21:05:14.501Z,98884.93
2023-10-02T21:07:43.243Z,98881.23
2023-10-02T21:10:12.185Z,98876.55
2023-10-02T21:12:41.344Z,98873.43
2023-10-02T21:15:12.684Z,98871.34
2023-10-02T21:17:42.447Z,98865.98
2023-10-02T21:20:15.641Z,98867.48
2023-10-02T21:22:46.105Z,98863.25
2023-10-02T21:25:16.148Z,98858.48
2023-10-02T21:27:45.030Z,98853.63
2023-10-02T21:30:14.239Z,98851.70
2023-10-02T21:32:43.958Z,98852.30
2023-10-02T21:35:13.046Z,98851.84
2023-10-02T21:37:42.360Z,98849.12
2023-10-02T21:40:13.737Z,98846.84
2023-10-02T21:42:43.488Z,98846.30
2023-10-02T21:45:12.655Z,98843.98
2023-10-02T21:47:42.247Z,98843.83
2023-10-02T21:50:12.024Z,98841.52
2023-10-02T21:52:41.152Z,98841.36
2023-10-02T21:55:12.506Z,98837.44
2023-10-02T21:57:41.341Z,98839.16
2023-10-02T22:00:35.789Z,98835.14
2023-10-02T22:03:06.849Z,98831.42
2023-10-02T22:05:35.952Z,98827.02
2023-10-02T22:08:06.378Z,98828.69
2023-10-02T22:10:34.357Z,98829.27
2023-10-02T22:13:03.361Z,98832.77
2023-10-02T22:15:33.815Z,98829.55
2023-10-02T22:18:04.238Z,98827.60
2023-10-02T22:20:32.031Z,98825.75
2023-10-02T22:23:00.681Z,98828.20
2023-10-02T22:25:29.572Z,98825.67
2023-10-02T22:28:00.592Z,98823.40
2023-10-02T22:30:31.549Z,98820.94
2023-10-02T22:33:00.893Z,98817.26
2023-10-02T22:35:31.743Z,98816.93
2023-10-02T22:38:01.068Z,98809.45
2023-10-02T22:40:31.705Z,98807.37
2023-10-02T22:43:03.463Z,98801.64
2023-10-02T22:45:34.418Z,98801.81
2023-10-02T22:48:05.112Z,98804.85
2023-10-02T22:50:33.913Z,98807.39
2023-10-02T22:53:03.172Z,98806.88
2023-10-02T22:55:32.814Z,98810.27
2023-10-02T22:58:01.524Z,98805.34
2023-10-02T23:00:30.443Z,98809.15
2023-10-02T23:02:59.231Z,98803.11
2023-10-02T23:05:29.450Z,98804.21
2023-10-02T23:07:59.030Z,98800.58
2023-10-02T23:10:29.435Z,98799.08
2023-10-02T23:12:57.509Z,98798.70
2023-10-02T23:15:27.740Z,98797.85
2023-10-02T23:17:57.325Z,98795.36
2023-10-02T23:20:26.431Z,98792.54
2023-10-02T23:22:55.764Z,98792.27
2023-10-02T23:25:27.464Z,98786.73
2023-10-02T23:27:56.216Z,98785.44
2023-10-02T23:30:24.837Z,98783.12
2023-10-02T23:32:56.699Z,98786.66
2023-10-02T23:35:26.579Z,98785.35
2023-10-02T23:37:57.637Z,98787.38
2023-10-02T23:40:27.055Z,98780.55
2023-10-02T23:43:00.693Z,98780.04
2023-10-02T23:45:29.437Z,98775.95
2023-10-02T23:48:01.431Z,98767.94
2023-10-02T23:50:32.482Z,98765.58
2023-10-02T23:53:01.923Z,98766.14
2023-10-02T23:55:30.448Z,98761.08
2023-10-02T23:57:59.140Z,98755.13
